Sct Santiago — V7NF7 — position and weather

sailwx.info

Track history (hours):
 
Tides and Currents Weather Stations Pressure Air Temp Water Temp Dewpoint Dewpoint Depression Visibility Wind Speed Wind Dir Waves Ship Positions

Sct Santiago

Last reported at 2017-Jun-22 04:46 UTC. Time now 2017-Jun-24 07:04 UTC.
Position N 49°37' W 007°24'.

Length 294 m; draft 11.5 m.

Type: Cargo ship. MMSI: 538002953.

Date/timePositionNaut miles runAvg speedWind from/ knotsBaromVisibWave heightAir tempDewpointWater temp
2017-Jun-22 04:46N 49°37' W 007°24'5717.7
2017-Jun-22 01:35N 49°43' W 005°57'218.3
2017-Jun-22 01:29N 49°43' W 005°55'1518.4
2017-Jun-22 00:42N 49°43' W 005°32'1618.5
2017-Jun-21 23:50N 49°44' W 005°07'618.9
2017-Jun-21 23:30N 49°45' W 004°58'1119.0
2017-Jun-21 22:57N 49°46' W 004°42'819.2
2017-Jun-21 22:30N 49°47' W 004°29'1019.5
2017-Jun-21 22:00N 49°49' W 004°14'1019.7
2017-Jun-21 21:30N 49°50' W 003°59'1019.6
2017-Jun-21 21:00N 49°52' W 003°44'1019.5
2017-Jun-21 20:30N 49°54' W 003°29'919.0
2017-Jun-21 20:00N 49°56' W 003°15'918.4
2017-Jun-21 19:30N 49°58' W 003°01'917.8
2017-Jun-21 19:00N 50°00' W 002°47'917.8
2017-Jun-21 18:30N 50°02' W 002°34'917.0
2017-Jun-21 18:00N 50°04' W 002°21'816.4
2017-Jun-21 17:30N 50°05' W 002°08'815.8
2017-Jun-21 17:00N 50°06' W 001°56'915.5
2017-Jun-21 16:25N 50°06' W 001°42'816.0
2017-Jun-21 15:57N 50°04' W 001°30'1216.0
2017-Jun-21 15:11N 50°01' W 001°12'416.1
2017-Jun-21 14:56N 49°59' W 001°07'716.1
2017-Jun-21 14:29N 49°54' W 000°58'1717.0
2017-Jun-21 13:30N 49°45' W 000°37'917.4
2017-Jun-21 13:00N 49°39' W 000°26'917.4
2017-Jun-21 12:30N 49°34' W 000°16'815.0
2017-Jun-21 12:00N 49°31' W 000°05'714.5
2017-Jun-21 11:30N 49°29' E 000°06'2 4.4
2017-Jun-21 11:00N 49°28' E 000°09'0 0.0
2017-Jun-21 10:30N 49°28' E 000°09'0 0.0
2017-Jun-21 10:00N 49°28' E 000°09'0 0.0
2017-Jun-21 09:30N 49°28' E 000°09'0 0.0
2017-Jun-21 09:00N 49°28' E 000°09'0 0.0
2017-Jun-21 08:30N 49°28' E 000°09'0 0.0
2017-Jun-21 08:00N 49°28' E 000°09'0 0.0
2017-Jun-21 07:30N 49°28' E 000°09'0 0.0
2017-Jun-21 07:00N 49°28' E 000°09'0 0.0
2017-Jun-21 06:30N 49°28' E 000°09'0 0.0
2017-Jun-21 06:00N 49°28' E 000°09'0 0.0
2017-Jun-21 05:30N 49°28' E 000°09'0 0.0
2017-Jun-21 05:00N 49°28' E 000°09'0 0.0
2017-Jun-21 04:30N 49°28' E 000°09'0 0.0
2017-Jun-21 04:00N 49°28' E 000°09'0 0.0
2017-Jun-21 03:30N 49°28' E 000°09'0 0.0
2017-Jun-21 03:00N 49°28' E 000°09'0 0.0
2017-Jun-21 02:30N 49°28' E 000°09'0 0.0
2017-Jun-21 01:59N 49°28' E 000°09'0 0.0
2017-Jun-21 01:29N 49°28' E 000°09'0 0.0
2017-Jun-21 00:59N 49°28' E 000°09'0 0.0
2017-Jun-21 00:29N 49°28' E 000°09'0 0.0
2017-Jun-20 23:59N 49°28' E 000°09'0 0.0
2017-Jun-20 23:29N 49°28' E 000°09'0 0.0
2017-Jun-20 22:59N 49°28' E 000°09'0 0.0
2017-Jun-20 22:29N 49°28' E 000°09'0 0.3
2017-Jun-20 22:01N 49°28' E 000°09'3 6.4
2017-Jun-20 21:30N 49°29' E 000°04'612.9
2017-Jun-20 21:00N 49°32' W 000°05'5 9.9
2017-Jun-20 20:31N 49°36' W 000°05'917.1
2017-Jun-20 20:01N 49°45' W 000°01'918.0
2017-Jun-20 19:30N 49°53' E 000°05'917.9
2017-Jun-20 19:00N 50°01' E 000°12'917.8
2017-Jun-20 18:31N 50°09' E 000°18'917.6
2017-Jun-20 18:00N 50°17' E 000°24'816.7
2017-Jun-20 17:31N 50°25' E 000°24'1816.7
2017-Jun-20 16:26N 50°38' E 000°44'818.9
2017-Jun-20 16:01N 50°43' E 000°53'1019.8
2017-Jun-20 15:31N 50°50' E 001°04'1120.6
2017-Jun-20 15:00N 50°58' E 001°16'2120.9
2017-Jun-20 14:01N 51°10' E 001°42'1020.0
2017-Jun-20 13:31N 51°18' E 001°51'1019.0
2017-Jun-20 13:00N 51°27' E 001°58'918.3
2017-Jun-20 12:31N 51°34' E 002°07'918.4
2017-Jun-20 12:01N 51°40' E 002°17'918.2
2017-Jun-20 11:30N 51°48' E 002°27'917.9
2017-Jun-20 11:01N 51°55' E 002°36'917.5
2017-Jun-20 10:30N 52°01' E 002°45'917.6
2017-Jun-20 09:59N 52°08' E 002°55'917.6
2017-Jun-20 09:29N 52°15' E 003°03'1017.7
2017-Jun-20 08:55N 52°23' E 003°13'1017.6
2017-Jun-20 08:23N 52°31' E 003°23'818.0
2017-Jun-20 07:56N 52°37' E 003°30'818.3
2017-Jun-20 07:30N 52°43' E 003°38'918.7
2017-Jun-20 07:00N 52°50' E 003°48'1019.3
2017-Jun-20 06:29N 52°58' E 003°59'1019.3
2017-Jun-20 05:56N 53°05' E 004°13'919.7
2017-Jun-20 05:30N 53°10' E 004°23'1020.3
2017-Jun-20 05:01N 53°20' E 004°30'1119.5
2017-Jun-20 04:27N 53°29' E 004°40'818.9
2017-Jun-20 04:00N 53°32' E 004°53'918.8
2017-Jun-20 03:30N 53°36' E 005°08'918.7
2017-Jun-20 03:00N 53°39' E 005°23'1018.7
2017-Jun-20 02:28N 53°42' E 005°39'818.2
2017-Jun-20 02:00N 53°45' E 005°52'917.8
2017-Jun-20 01:31N 53°47' E 006°06'917.8
2017-Jun-20 01:01N 53°50' E 006°21'918.1
2017-Jun-20 00:31N 53°52' E 006°36'918.8
2017-Jun-20 00:00N 53°54' E 006°51'1016.3
2017-Jun-19 23:24N 53°56' E 007°08'917.3
2017-Jun-19 22:54N 53°58' E 007°22'1018.6
2017-Jun-19 22:23N 53°59' E 007°38'717.5
2017-Jun-19 22:00N 53°54' E 007°45'814.9
2017-Jun-19 21:30N 53°52' E 007°57'917.5
2017-Jun-19 21:00N 53°47' E 008°09'918.0
2017-Jun-19 20:31N 53°41' E 008°21'815.5
2017-Jun-19 20:00N 53°36' E 008°30'1 2.7
2017-Jun-19 19:29N 53°35' E 008°32'0 0.0
2017-Jun-19 18:59N 53°35' E 008°32'0 0.0
2017-Jun-19 18:29N 53°35' E 008°32'0 0.0
2017-Jun-19 17:58N 53°35' E 008°32'0 0.0
2017-Jun-19 17:28N 53°35' E 008°32'0 0.0
2017-Jun-19 16:58N 53°35' E 008°32'0 0.0
2017-Jun-19 16:28N 53°35' E 008°32'0 0.0
2017-Jun-19 15:58N 53°35' E 008°32'0 0.0
2017-Jun-19 15:28N 53°35' E 008°32'0 0.0
2017-Jun-19 14:58N 53°35' E 008°32'0 0.0
2017-Jun-19 13:58N 53°35' E 008°32'0 0.0
2017-Jun-19 13:28N 53°35' E 008°32'0 0.0
2017-Jun-19 12:58N 53°35' E 008°32'0 0.0
2017-Jun-19 12:28N 53°35' E 008°32'0 0.0
2017-Jun-19 11:58N 53°35' E 008°32'0 0.0
2017-Jun-19 11:28N 53°35' E 008°32'0 0.0
2017-Jun-19 10:58N 53°35' E 008°32'0 0.0
2017-Jun-19 10:28N 53°35' E 008°32'0 0.0
2017-Jun-19 09:58N 53°35' E 008°32'0 0.0
2017-Jun-19 09:28N 53°35' E 008°32'0 0.0
2017-Jun-19 08:58N 53°35' E 008°32'0 0.0
2017-Jun-19 08:28N 53°35' E 008°32'0 0.0
2017-Jun-19 07:58N 53°35' E 008°32'0 0.0
2017-Jun-19 07:28N 53°35' E 008°32'0 0.0
2017-Jun-19 06:58N 53°35' E 008°32'0 0.0
2017-Jun-19 06:28N 53°35' E 008°32'0 0.0
2017-Jun-19 05:58N 53°35' E 008°32'0 0.0
2017-Jun-19 05:28N 53°35' E 008°32'0 0.0
2017-Jun-19 04:58N 53°35' E 008°32'0 0.0
2017-Jun-19 04:28N 53°35' E 008°32'0 0.0
2017-Jun-19 03:58N 53°35' E 008°32'0 0.0
2017-Jun-19 03:28N 53°35' E 008°32'0 0.0
2017-Jun-19 02:58N 53°35' E 008°32'0 0.0
2017-Jun-19 02:28N 53°35' E 008°32'0 0.0
2017-Jun-19 01:58N 53°35' E 008°32'0 0.0
2017-Jun-19 01:28N 53°35' E 008°32'0 0.0
2017-Jun-19 00:58N 53°35' E 008°32'0 0.0
2017-Jun-19 00:28N 53°35' E 008°32'0 0.0
2017-Jun-18 23:58N 53°35' E 008°32'0 0.0
2017-Jun-18 23:28N 53°35' E 008°32'0 0.0
2017-Jun-18 22:58N 53°35' E 008°32'0 0.0
2017-Jun-18 22:28N 53°35' E 008°32'0 0.0
2017-Jun-18 21:58N 53°35' E 008°32'0 0.0
2017-Jun-18 21:28N 53°35' E 008°32'0 0.0
2017-Jun-18 20:58N 53°35' E 008°32'0 0.0
2017-Jun-18 20:28N 53°35' E 008°32'0 0.0
2017-Jun-18 19:58N 53°35' E 008°32'0 0.0
2017-Jun-18 19:28N 53°35' E 008°32'0 0.0
2017-Jun-18 18:58N 53°35' E 008°32'0 0.0
2017-Jun-18 18:28N 53°35' E 008°32'0 0.0
2017-Jun-18 17:58N 53°35' E 008°32'0 0.0
2017-Jun-18 17:28N 53°35' E 008°32'0 0.0
2017-Jun-18 16:58N 53°35' E 008°32'0 0.0
2017-Jun-18 16:28N 53°35' E 008°32'0 0.0
2017-Jun-18 15:58N 53°35' E 008°32'0 0.0
2017-Jun-18 15:28N 53°35' E 008°32'0 0.0
2017-Jun-18 14:58N 53°35' E 008°32'0 0.0
2017-Jun-18 14:25N 53°35' E 008°32'0 0.0
2017-Jun-18 13:58N 53°35' E 008°32'0 0.0
2017-Jun-18 13:28N 53°35' E 008°32'0 0.0
2017-Jun-18 12:58N 53°35' E 008°32'0 0.0
2017-Jun-18 12:28N 53°35' E 008°32'0 0.0
2017-Jun-18 11:58N 53°35' E 008°32'0 0.0
2017-Jun-18 11:28N 53°35' E 008°32'0 0.0
2017-Jun-18 10:58N 53°35' E 008°32'0 0.1
2017-Jun-18 10:30N 53°35' E 008°32'1 2.2
2017-Jun-18 10:00N 53°36' E 008°31'4 8.3
2017-Jun-18 09:30N 53°38' E 008°25'5 9.8
2017-Jun-18 09:00N 53°42' E 008°20'611.1
2017-Jun-18 08:30N 53°45' E 008°12'510.9
2017-Jun-18 08:00N 53°49' E 008°06'510.6
2017-Jun-18 07:30N 53°51' E 007°58'510.8
2017-Jun-18 07:00N 53°52' E 007°49'510.0
2017-Jun-18 06:30N 53°53' E 007°41'3 5.2
2017-Jun-18 05:58N 53°52' E 007°36'2 3.6
2017-Jun-18 05:30N 53°54' E 007°37'5 9.0
2017-Jun-18 04:58N 53°54' E 007°29'3912.0
2017-Jun-18 01:43N 53°45' E 006°24'312.5
2017-Jun-18 01:29N 53°44' E 006°19'812.5
2017-Jun-18 00:52N 53°42' E 006°07'1112.2
2017-Jun-18 00:00N 53°39' E 005°50'612.2
2017-Jun-17 23:30N 53°37' E 005°41'612.3
2017-Jun-17 23:00N 53°35' E 005°31'612.5
2017-Jun-17 22:30N 53°33' E 005°21'612.3
2017-Jun-17 22:00N 53°31' E 005°11'612.1
2017-Jun-17 21:30N 53°29' E 005°01'612.1
2017-Jun-17 21:00N 53°26' E 004°52'611.7
2017-Jun-17 20:30N 53°23' E 004°43'611.4
2017-Jun-17 19:59N 53°19' E 004°37'811.3
2017-Jun-17 19:16N 53°12' E 004°31'311.1
2017-Jun-17 19:00N 53°09' E 004°28'510.9
2017-Jun-17 18:30N 53°05' E 004°23'510.7
2017-Jun-17 18:00N 53°00' E 004°19'510.6
2017-Jun-17 17:30N 52°55' E 004°15'510.4
2017-Jun-17 17:00N 52°50' E 004°13'510.1
2017-Jun-17 16:30N 52°46' E 004°08'510.3
2017-Jun-17 16:00N 52°42' E 004°03'510.1
2017-Jun-17 15:30N 52°38' E 003°58'510.0
2017-Jun-17 15:00N 52°34' E 003°52'510.1
2017-Jun-17 14:30N 52°31' E 003°46'10 9.7
2017-Jun-17 13:30N 52°24' E 003°34'2110.0
2017-Jun-17 11:25N 52°04' E 003°25'1117.5
2017-Jun-17 10:46N 51°53' E 003°22'0 0.0
2017-Jun-17 10:30N 51°53' E 003°22'4 7.9
2017-Jun-17 10:00N 51°50' E 003°19'611.0
2017-Jun-17 09:28N 51°44' E 003°15'714.0
2017-Jun-17 09:00N 51°38' E 003°11'816.6
2017-Jun-17 08:30N 51°31' E 003°05'713.3
2017-Jun-17 08:00N 51°25' E 003°02'815.4
2017-Jun-17 07:30N 51°25' E 003°14'815.4
2017-Jun-17 07:00N 51°25' E 003°26'612.6
2017-Jun-17 06:30N 51°26' E 003°36'4 8.3
2017-Jun-17 06:00N 51°25' E 003°43'611.9
2017-Jun-17 05:30N 51°21' E 003°50'510.4
2017-Jun-17 05:00N 51°24' E 003°57'3 6.8
2017-Jun-17 04:30N 51°25' E 004°02'5 9.9
2017-Jun-17 04:00N 51°23' E 004°09'4 8.6
2017-Jun-17 03:30N 51°21' E 004°15'1 1.7
2017-Jun-17 02:59N 51°20' E 004°16'0 0.0
2017-Jun-17 02:30N 51°20' E 004°16'0 0.0
2017-Jun-17 01:56N 51°20' E 004°16'0 0.0
2017-Jun-17 01:30N 51°20' E 004°16'0 0.0
2017-Jun-17 01:00N 51°20' E 004°16'0 0.0
2017-Jun-17 00:30N 51°20' E 004°16'0 0.0
2017-Jun-16 23:59N 51°20' E 004°16'0 0.0
2017-Jun-16 23:29N 51°20' E 004°16'0 0.0
2017-Jun-16 22:59N 51°20' E 004°16'0 0.0
2017-Jun-16 22:31N 51°20' E 004°16'0 0.0
2017-Jun-16 22:01N 51°20' E 004°16'0 0.0
2017-Jun-16 21:30N 51°20' E 004°17'0 0.0
2017-Jun-16 21:00N 51°20' E 004°16'0 0.0
2017-Jun-16 20:31N 51°20' E 004°16'0 0.0
2017-Jun-16 20:01N 51°20' E 004°16'0 0.0
2017-Jun-16 19:31N 51°20' E 004°16'0 0.0
2017-Jun-16 19:00N 51°20' E 004°16'0 0.0
2017-Jun-16 18:31N 51°20' E 004°16'0 0.0
2017-Jun-16 18:00N 51°20' E 004°16'0 0.0
2017-Jun-16 17:28N 51°20' E 004°16'0 0.0
2017-Jun-16 16:58N 51°20' E 004°17'0 0.0
2017-Jun-16 16:25N 51°20' E 004°16'0 0.0
2017-Jun-16 15:55N 51°20' E 004°16'0 0.0
2017-Jun-16 15:29N 51°20' E 004°17'0 0.0
2017-Jun-16 15:00N 51°20' E 004°17'0 0.0
2017-Jun-16 14:28N 51°20' E 004°16'0 0.0
2017-Jun-16 13:26N 51°20' E 004°17'0 0.0
2017-Jun-16 12:56N 51°20' E 004°17'0 0.0
2017-Jun-16 12:30N 51°20' E 004°16'0 0.0
2017-Jun-16 12:00N 51°20' E 004°17'0 0.0
2017-Jun-16 11:29N 51°20' E 004°17'0 0.0
2017-Jun-16 11:00N 51°20' E 004°16'0 0.0
2017-Jun-16 10:31N 51°20' E 004°17'0 0.0
2017-Jun-16 09:57N 51°20' E 004°17'0 0.0
2017-Jun-16 09:30N 51°20' E 004°17'0 0.0
2017-Jun-16 09:01N 51°20' E 004°17'0 0.0
2017-Jun-16 08:28N 51°20' E 004°17'0 0.0
2017-Jun-16 08:00N 51°20' E 004°16'0 0.0
2017-Jun-16 07:31N 51°20' E 004°17'0 0.0
2017-Jun-16 07:00N 51°20' E 004°16'0 0.0
2017-Jun-16 06:26N 51°20' E 004°17'0 0.0
2017-Jun-16 06:00N 51°20' E 004°17'0 0.0
2017-Jun-16 05:30N 51°20' E 004°16'0 0.0
2017-Jun-16 05:00N 51°20' E 004°16'0 0.0
2017-Jun-16 04:30N 51°20' E 004°16'0 0.0
2017-Jun-16 04:00N 51°20' E 004°16'0 0.5
2017-Jun-16 03:30N 51°20' E 004°16'3 5.0
2017-Jun-16 03:00N 51°22' E 004°13'5 9.6
2017-Jun-16 02:30N 51°22' E 004°05'611.3
2017-Jun-16 02:00N 51°26' E 003°58'714.4
2017-Jun-16 01:30N 51°21' E 003°50'611.7
2017-Jun-16 01:00N 51°24' E 003°43'4 9.0
2017-Jun-16 00:30N 51°26' E 003°36'3 6.2
2017-Jun-16 00:00N 51°25' E 003°31'510.2
2017-Jun-15 23:30N 51°24' E 003°23'510.1
2017-Jun-15 23:00N 51°25' E 003°15'4 7.3
2017-Jun-15 22:30N 51°24' E 003°09'5 9.1
2017-Jun-15 22:00N 51°24' E 003°02'510.0
2017-Jun-15 21:30N 51°22' E 002°54'510.7
2017-Jun-15 21:00N 51°22' E 002°46'510.5
2017-Jun-15 20:30N 51°22' E 002°38'4 7.8
2017-Jun-15 20:00N 51°22' E 002°31'3 5.8
2017-Jun-15 19:30N 51°21' E 002°27'1 2.0
2017-Jun-15 19:00N 51°20' E 002°26'1 2.3
2017-Jun-15 18:30N 51°19' E 002°25'1 2.6
2017-Jun-15 18:00N 51°19' E 002°23'1 2.8
2017-Jun-15 17:30N 51°18' E 002°21'2 3.4
2017-Jun-15 17:00N 51°18' E 002°18'2 3.5
2017-Jun-15 16:30N 51°16' E 002°17'2 3.6
2017-Jun-15 16:00N 51°15' E 002°15'3 5.4
2017-Jun-15 15:30N 51°14' E 002°11'612.6
2017-Jun-15 15:00N 51°11' E 002°01'1312.6
2017-Jun-15 14:00N 51°06' E 001°44'611.9
2017-Jun-15 13:30N 51°01' E 001°37'611.2
2017-Jun-15 13:00N 50°57' E 001°31'510.2
2017-Jun-15 12:30N 50°53' E 001°27'5 9.8
2017-Jun-15 12:00N 50°48' E 001°25'5 9.7
2017-Jun-15 11:30N 50°43' E 001°23'5 9.2
2017-Jun-15 10:59N 50°39' E 001°20'5 9.7
2017-Jun-15 10:30N 50°36' E 001°14'5 9.2
2017-Jun-15 10:00N 50°33' E 001°08'5 9.2
2017-Jun-15 09:30N 50°31' E 001°02'9 9.1
2017-Jun-15 08:30N 50°27' E 000°49'5 9.2
2017-Jun-15 07:57N 50°26' E 000°41'4 9.2
2017-Jun-15 07:30N 50°25' E 000°35'5 9.1
2017-Jun-15 07:00N 50°23' E 000°28'5 9.1
2017-Jun-15 06:30N 50°22' E 000°21'4 8.9
2017-Jun-15 06:00N 50°21' E 000°15'4 8.9
2017-Jun-15 05:30N 50°21' E 000°08'5 9.2
2017-Jun-15 05:00N 50°21' E 000°00'5 9.1
2017-Jun-15 04:30N 50°21' W 000°07'5 9.2
2017-Jun-15 04:00N 50°21' W 000°14'5 9.3
2017-Jun-15 03:30N 50°22' W 000°21'5 9.5
2017-Jun-15 03:00N 50°22' W 000°29'5 9.7
2017-Jun-15 02:29N 50°25' W 000°35'510.5
2017-Jun-15 02:00N 50°28' W 000°41'510.5
2017-Jun-15 01:30N 50°32' W 000°47'510.2
2017-Jun-15 01:00N 50°36' W 000°52'4 8.4
2017-Jun-15 00:30N 50°40' W 000°56'3 6.6
2017-Jun-15 00:00N 50°42' W 000°59'815.3
2017-Jun-14 23:30N 50°46' W 001°09'612.0
2017-Jun-14 23:00N 50°48' W 001°18'5 9.1
2017-Jun-14 22:30N 50°52' W 001°22'4 7.4
2017-Jun-14 22:00N 50°54' W 001°26'1 0.1
2017-Jun-14 11:19N 50°54' W 001°28'1 4.2
2017-Jun-14 10:59N 50°54' W 001°25'4 7.8
2017-Jun-14 10:30N 50°51' W 001°21'4 8.1
2017-Jun-14 10:00N 50°48' W 001°18'2 4.2
2017-Jun-14 09:30N 50°46' W 001°16'5 9.2
2017-Jun-14 09:00N 50°46' W 001°09'612.6
2017-Jun-14 08:30N 50°43' W 000°60'613.0
2017-Jun-14 08:00N 50°37' W 000°57'5 9.7
2017-Jun-14 07:30N 50°33' W 001°02'5 9.6
2017-Jun-14 06:59N 50°30' W 001°09'4 9.4
2017-Jun-14 06:30N 50°28' W 001°14'0 0.4
2017-Jun-14 06:01N 50°28' W 001°15'3 5.8
2017-Jun-14 05:30N 50°26' W 001°19'0 0.6
2017-Jun-14 05:00N 50°26' W 001°18'2 3.0
2017-Jun-14 04:30N 50°26' W 001°16'1 2.1
2017-Jun-14 04:01N 50°27' W 001°14'2 3.8
2017-Jun-14 03:31N 50°28' W 001°17'1 1.6
2017-Jun-14 03:00N 50°28' W 001°18'1 2.4
2017-Jun-14 02:30N 50°28' W 001°16'1 1.7
2017-Jun-14 02:01N 50°28' W 001°14'3 5.8
2017-Jun-14 01:30N 50°25' W 001°15'510.1
2017-Jun-14 01:00N 50°22' W 001°21'510.7
2017-Jun-14 00:30N 50°19' W 001°27'511.0
2017-Jun-14 00:00N 50°14' W 001°33'611.4
2017-Jun-13 23:30N 50°10' W 001°39'612.2
2017-Jun-13 23:01N 50°07' W 001°47'612.6
2017-Jun-13 22:31N 50°03' W 001°55'612.9
2017-Jun-13 22:00N 50°00' W 002°04'612.9
2017-Jun-13 21:30N 49°57' W 002°12'612.4
2017-Jun-13 21:00N 49°55' W 002°21'611.8
2017-Jun-13 20:30N 49°53' W 002°30'611.4
2017-Jun-13 19:59N 49°51' W 002°39'511.1
2017-Jun-13 19:30N 49°50' W 002°47'511.0
2017-Jun-13 19:01N 49°48' W 002°55'510.6
2017-Jun-13 18:31N 49°47' W 003°03'510.4
2017-Jun-13 18:00N 49°46' W 003°11'611.3
2017-Jun-13 17:30N 49°45' W 003°20'815.4
2017-Jun-13 16:58N 49°44' W 003°32'715.3
2017-Jun-13 16:30N 49°44' W 003°43'815.3
2017-Jun-13 16:00N 49°43' W 003°55'815.3
2017-Jun-13 15:30N 49°42' W 004°07'815.3
2017-Jun-13 14:59N 49°41' W 004°19'1015.3
2017-Jun-13 14:20N 49°40' W 004°34'1315.2
2017-Jun-13 13:30N 49°38' W 004°53'815.0
2017-Jun-13 12:59N 49°38' W 005°06'1014.9
2017-Jun-13 12:18N 49°38' W 005°21'414.9
2017-Jun-13 12:00N 49°38' W 005°28'714.9
2017-Jun-13 11:30N 49°38' W 005°40'715.0
2017-Jun-13 11:00N 49°38' W 005°51'815.0
2017-Jun-13 10:30N 49°38' W 006°03'814.8
2017-Jun-13 09:59N 49°38' W 006°15'1114.7
2017-Jun-13 09:13N 49°38' W 006°32'314.7
2017-Jun-13 08:59N 49°38' W 006°37'714.8
2017-Jun-13 08:30N 49°38' W 006°48'  
Track history (hours):
 
Tides and Currents Weather Stations Pressure Air Temp Water Temp Dewpoint Dewpoint Depression Visibility Wind Speed Wind Dir Waves Ship Positions

Sct Santiago

Last reported at 2017-Jun-22 04:46 UTC. Time now 2017-Jun-24 07:04 UTC.
Position N 49°37' W 007°24'.

Length 294 m; draft 11.5 m.

Type: Cargo ship. MMSI: 538002953.

Date/timePositionNaut miles runAvg speedWind from/ knotsBaromVisibWave heightAir tempDewpointWater temp
2017-Jun-22 04:46N 49°37' W 007°24'5717.7
2017-Jun-22 01:35N 49°43' W 005°57'218.3
2017-Jun-22 01:29N 49°43' W 005°55'1518.4
2017-Jun-22 00:42N 49°43' W 005°32'1618.5
2017-Jun-21 23:50N 49°44' W 005°07'618.9
2017-Jun-21 23:30N 49°45' W 004°58'1119.0
2017-Jun-21 22:57N 49°46' W 004°42'819.2
2017-Jun-21 22:30N 49°47' W 004°29'1019.5
2017-Jun-21 22:00N 49°49' W 004°14'1019.7
2017-Jun-21 21:30N 49°50' W 003°59'1019.6
2017-Jun-21 21:00N 49°52' W 003°44'1019.5
2017-Jun-21 20:30N 49°54' W 003°29'919.0
2017-Jun-21 20:00N 49°56' W 003°15'918.4
2017-Jun-21 19:30N 49°58' W 003°01'917.8
2017-Jun-21 19:00N 50°00' W 002°47'917.8
2017-Jun-21 18:30N 50°02' W 002°34'917.0
2017-Jun-21 18:00N 50°04' W 002°21'816.4
2017-Jun-21 17:30N 50°05' W 002°08'815.8
2017-Jun-21 17:00N 50°06' W 001°56'915.5
2017-Jun-21 16:25N 50°06' W 001°42'816.0
2017-Jun-21 15:57N 50°04' W 001°30'1216.0
2017-Jun-21 15:11N 50°01' W 001°12'416.1
2017-Jun-21 14:56N 49°59' W 001°07'716.1
2017-Jun-21 14:29N 49°54' W 000°58'1717.0
2017-Jun-21 13:30N 49°45' W 000°37'917.4
2017-Jun-21 13:00N 49°39' W 000°26'917.4
2017-Jun-21 12:30N 49°34' W 000°16'815.0
2017-Jun-21 12:00N 49°31' W 000°05'714.5
2017-Jun-21 11:30N 49°29' E 000°06'2 4.4
2017-Jun-21 11:00N 49°28' E 000°09'0 0.0
2017-Jun-21 10:30N 49°28' E 000°09'0 0.0
2017-Jun-21 10:00N 49°28' E 000°09'0 0.0
2017-Jun-21 09:30N 49°28' E 000°09'0 0.0
2017-Jun-21 09:00N 49°28' E 000°09'0 0.0
2017-Jun-21 08:30N 49°28' E 000°09'0 0.0
2017-Jun-21 08:00N 49°28' E 000°09'0 0.0
2017-Jun-21 07:30N 49°28' E 000°09'0 0.0
2017-Jun-21 07:00N 49°28' E 000°09'0 0.0
2017-Jun-21 06:30N 49°28' E 000°09'0 0.0
2017-Jun-21 06:00N 49°28' E 000°09'0 0.0
2017-Jun-21 05:30N 49°28' E 000°09'0 0.0
2017-Jun-21 05:00N 49°28' E 000°09'0 0.0
2017-Jun-21 04:30N 49°28' E 000°09'0 0.0
2017-Jun-21 04:00N 49°28' E 000°09'0 0.0
2017-Jun-21 03:30N 49°28' E 000°09'0 0.0
2017-Jun-21 03:00N 49°28' E 000°09'0 0.0
2017-Jun-21 02:30N 49°28' E 000°09'0 0.0
2017-Jun-21 01:59N 49°28' E 000°09'0 0.0
2017-Jun-21 01:29N 49°28' E 000°09'0 0.0
2017-Jun-21 00:59N 49°28' E 000°09'0 0.0
2017-Jun-21 00:29N 49°28' E 000°09'0 0.0
2017-Jun-20 23:59N 49°28' E 000°09'0 0.0
2017-Jun-20 23:29N 49°28' E 000°09'0 0.0
2017-Jun-20 22:59N 49°28' E 000°09'0 0.0
2017-Jun-20 22:29N 49°28' E 000°09'0 0.3
2017-Jun-20 22:01N 49°28' E 000°09'3 6.4
2017-Jun-20 21:30N 49°29' E 000°04'612.9
2017-Jun-20 21:00N 49°32' W 000°05'5 9.9
2017-Jun-20 20:31N 49°36' W 000°05'917.1
2017-Jun-20 20:01N 49°45' W 000°01'918.0
2017-Jun-20 19:30N 49°53' E 000°05'917.9
2017-Jun-20 19:00N 50°01' E 000°12'917.8
2017-Jun-20 18:31N 50°09' E 000°18'917.6
2017-Jun-20 18:00N 50°17' E 000°24'816.7
2017-Jun-20 17:31N 50°25' E 000°24'1816.7
2017-Jun-20 16:26N 50°38' E 000°44'818.9
2017-Jun-20 16:01N 50°43' E 000°53'1019.8
2017-Jun-20 15:31N 50°50' E 001°04'1120.6
2017-Jun-20 15:00N 50°58' E 001°16'2120.9
2017-Jun-20 14:01N 51°10' E 001°42'1020.0
2017-Jun-20 13:31N 51°18' E 001°51'1019.0
2017-Jun-20 13:00N 51°27' E 001°58'918.3
2017-Jun-20 12:31N 51°34' E 002°07'918.4
2017-Jun-20 12:01N 51°40' E 002°17'918.2
2017-Jun-20 11:30N 51°48' E 002°27'917.9
2017-Jun-20 11:01N 51°55' E 002°36'917.5
2017-Jun-20 10:30N 52°01' E 002°45'917.6
2017-Jun-20 09:59N 52°08' E 002°55'917.6
2017-Jun-20 09:29N 52°15' E 003°03'1017.7
2017-Jun-20 08:55N 52°23' E 003°13'1017.6
2017-Jun-20 08:23N 52°31' E 003°23'818.0
2017-Jun-20 07:56N 52°37' E 003°30'818.3
2017-Jun-20 07:30N 52°43' E 003°38'918.7
2017-Jun-20 07:00N 52°50' E 003°48'1019.3
2017-Jun-20 06:29N 52°58' E 003°59'1019.3
2017-Jun-20 05:56N 53°05' E 004°13'919.7
2017-Jun-20 05:30N 53°10' E 004°23'1020.3
2017-Jun-20 05:01N 53°20' E 004°30'1119.5
2017-Jun-20 04:27N 53°29' E 004°40'818.9
2017-Jun-20 04:00N 53°32' E 004°53'918.8
2017-Jun-20 03:30N 53°36' E 005°08'918.7
2017-Jun-20 03:00N 53°39' E 005°23'1018.7
2017-Jun-20 02:28N 53°42' E 005°39'818.2
2017-Jun-20 02:00N 53°45' E 005°52'917.8
2017-Jun-20 01:31N 53°47' E 006°06'917.8
2017-Jun-20 01:01N 53°50' E 006°21'918.1
2017-Jun-20 00:31N 53°52' E 006°36'918.8
2017-Jun-20 00:00N 53°54' E 006°51'1016.3
2017-Jun-19 23:24N 53°56' E 007°08'917.3
2017-Jun-19 22:54N 53°58' E 007°22'1018.6
2017-Jun-19 22:23N 53°59' E 007°38'717.5
2017-Jun-19 22:00N 53°54' E 007°45'814.9
2017-Jun-19 21:30N 53°52' E 007°57'917.5
2017-Jun-19 21:00N 53°47' E 008°09'918.0
2017-Jun-19 20:31N 53°41' E 008°21'815.5
2017-Jun-19 20:00N 53°36' E 008°30'1 2.7
2017-Jun-19 19:29N 53°35' E 008°32'0 0.0
2017-Jun-19 18:59N 53°35' E 008°32'0 0.0
2017-Jun-19 18:29N 53°35' E 008°32'0 0.0
2017-Jun-19 17:58N 53°35' E 008°32'0 0.0
2017-Jun-19 17:28N 53°35' E 008°32'0 0.0
2017-Jun-19 16:58N 53°35' E 008°32'0 0.0
2017-Jun-19 16:28N 53°35' E 008°32'0 0.0
2017-Jun-19 15:58N 53°35' E 008°32'0 0.0
2017-Jun-19 15:28N 53°35' E 008°32'0 0.0
2017-Jun-19 14:58N 53°35' E 008°32'0 0.0
2017-Jun-19 13:58N 53°35' E 008°32'0 0.0
2017-Jun-19 13:28N 53°35' E 008°32'0 0.0
2017-Jun-19 12:58N 53°35' E 008°32'0 0.0
2017-Jun-19 12:28N 53°35' E 008°32'0 0.0
2017-Jun-19 11:58N 53°35' E 008°32'0 0.0
2017-Jun-19 11:28N 53°35' E 008°32'0 0.0
2017-Jun-19 10:58N 53°35' E 008°32'0 0.0
2017-Jun-19 10:28N 53°35' E 008°32'0 0.0
2017-Jun-19 09:58N 53°35' E 008°32'0 0.0
2017-Jun-19 09:28N 53°35' E 008°32'0 0.0
2017-Jun-19 08:58N 53°35' E 008°32'0 0.0
2017-Jun-19 08:28N 53°35' E 008°32'0 0.0
2017-Jun-19 07:58N 53°35' E 008°32'0 0.0
2017-Jun-19 07:28N 53°35' E 008°32'0 0.0
2017-Jun-19 06:58N 53°35' E 008°32'0 0.0
2017-Jun-19 06:28N 53°35' E 008°32'0 0.0
2017-Jun-19 05:58N 53°35' E 008°32'0 0.0
2017-Jun-19 05:28N 53°35' E 008°32'0 0.0
2017-Jun-19 04:58N 53°35' E 008°32'0 0.0
2017-Jun-19 04:28N 53°35' E 008°32'0 0.0
2017-Jun-19 03:58N 53°35' E 008°32'0 0.0
2017-Jun-19 03:28N 53°35' E 008°32'0 0.0
2017-Jun-19 02:58N 53°35' E 008°32'0 0.0
2017-Jun-19 02:28N 53°35' E 008°32'0 0.0
2017-Jun-19 01:58N 53°35' E 008°32'0 0.0
2017-Jun-19 01:28N 53°35' E 008°32'0 0.0
2017-Jun-19 00:58N 53°35' E 008°32'0 0.0
2017-Jun-19 00:28N 53°35' E 008°32'0 0.0
2017-Jun-18 23:58N 53°35' E 008°32'0 0.0
2017-Jun-18 23:28N 53°35' E 008°32'0 0.0
2017-Jun-18 22:58N 53°35' E 008°32'0 0.0
2017-Jun-18 22:28N 53°35' E 008°32'0 0.0
2017-Jun-18 21:58N 53°35' E 008°32'0 0.0
2017-Jun-18 21:28N 53°35' E 008°32'0 0.0
2017-Jun-18 20:58N 53°35' E 008°32'0 0.0
2017-Jun-18 20:28N 53°35' E 008°32'0 0.0
2017-Jun-18 19:58N 53°35' E 008°32'0 0.0
2017-Jun-18 19:28N 53°35' E 008°32'0 0.0
2017-Jun-18 18:58N 53°35' E 008°32'0 0.0
2017-Jun-18 18:28N 53°35' E 008°32'0 0.0
2017-Jun-18 17:58N 53°35' E 008°32'0 0.0
2017-Jun-18 17:28N 53°35' E 008°32'0 0.0
2017-Jun-18 16:58N 53°35' E 008°32'0 0.0
2017-Jun-18 16:28N 53°35' E 008°32'0 0.0
2017-Jun-18 15:58N 53°35' E 008°32'0 0.0
2017-Jun-18 15:28N 53°35' E 008°32'0 0.0
2017-Jun-18 14:58N 53°35' E 008°32'0 0.0
2017-Jun-18 14:25N 53°35' E 008°32'0 0.0
2017-Jun-18 13:58N 53°35' E 008°32'0 0.0
2017-Jun-18 13:28N 53°35' E 008°32'0 0.0
2017-Jun-18 12:58N 53°35' E 008°32'0 0.0
2017-Jun-18 12:28N 53°35' E 008°32'0 0.0
2017-Jun-18 11:58N 53°35' E 008°32'0 0.0
2017-Jun-18 11:28N 53°35' E 008°32'0 0.0
2017-Jun-18 10:58N 53°35' E 008°32'0 0.1
2017-Jun-18 10:30N 53°35' E 008°32'1 2.2
2017-Jun-18 10:00N 53°36' E 008°31'4 8.3
2017-Jun-18 09:30N 53°38' E 008°25'5 9.8
2017-Jun-18 09:00N 53°42' E 008°20'611.1
2017-Jun-18 08:30N 53°45' E 008°12'510.9
2017-Jun-18 08:00N 53°49' E 008°06'510.6
2017-Jun-18 07:30N 53°51' E 007°58'510.8
2017-Jun-18 07:00N 53°52' E 007°49'510.0
2017-Jun-18 06:30N 53°53' E 007°41'3 5.2
2017-Jun-18 05:58N 53°52' E 007°36'2 3.6
2017-Jun-18 05:30N 53°54' E 007°37'5 9.0
2017-Jun-18 04:58N 53°54' E 007°29'3912.0
2017-Jun-18 01:43N 53°45' E 006°24'312.5
2017-Jun-18 01:29N 53°44' E 006°19'812.5
2017-Jun-18 00:52N 53°42' E 006°07'1112.2
2017-Jun-18 00:00N 53°39' E 005°50'612.2
2017-Jun-17 23:30N 53°37' E 005°41'612.3
2017-Jun-17 23:00N 53°35' E 005°31'612.5
2017-Jun-17 22:30N 53°33' E 005°21'612.3
2017-Jun-17 22:00N 53°31' E 005°11'612.1
2017-Jun-17 21:30N 53°29' E 005°01'612.1
2017-Jun-17 21:00N 53°26' E 004°52'611.7
2017-Jun-17 20:30N 53°23' E 004°43'611.4
2017-Jun-17 19:59N 53°19' E 004°37'811.3
2017-Jun-17 19:16N 53°12' E 004°31'311.1
2017-Jun-17 19:00N 53°09' E 004°28'510.9
2017-Jun-17 18:30N 53°05' E 004°23'510.7
2017-Jun-17 18:00N 53°00' E 004°19'510.6
2017-Jun-17 17:30N 52°55' E 004°15'510.4
2017-Jun-17 17:00N 52°50' E 004°13'510.1
2017-Jun-17 16:30N 52°46' E 004°08'510.3
2017-Jun-17 16:00N 52°42' E 004°03'510.1
2017-Jun-17 15:30N 52°38' E 003°58'510.0
2017-Jun-17 15:00N 52°34' E 003°52'510.1
2017-Jun-17 14:30N 52°31' E 003°46'10 9.7
2017-Jun-17 13:30N 52°24' E 003°34'2110.0
2017-Jun-17 11:25N 52°04' E 003°25'1117.5
2017-Jun-17 10:46N 51°53' E 003°22'0 0.0
2017-Jun-17 10:30N 51°53' E 003°22'4 7.9
2017-Jun-17 10:00N 51°50' E 003°19'611.0
2017-Jun-17 09:28N 51°44' E 003°15'714.0
2017-Jun-17 09:00N 51°38' E 003°11'816.6
2017-Jun-17 08:30N 51°31' E 003°05'713.3
2017-Jun-17 08:00N 51°25' E 003°02'815.4
2017-Jun-17 07:30N 51°25' E 003°14'815.4
2017-Jun-17 07:00N 51°25' E 003°26'612.6
2017-Jun-17 06:30N 51°26' E 003°36'4 8.3
2017-Jun-17 06:00N 51°25' E 003°43'611.9
2017-Jun-17 05:30N 51°21' E 003°50'510.4
2017-Jun-17 05:00N 51°24' E 003°57'3 6.8
2017-Jun-17 04:30N 51°25' E 004°02'5 9.9
2017-Jun-17 04:00N 51°23' E 004°09'4 8.6
2017-Jun-17 03:30N 51°21' E 004°15'1 1.7
2017-Jun-17 02:59N 51°20' E 004°16'0 0.0
2017-Jun-17 02:30N 51°20' E 004°16'0 0.0
2017-Jun-17 01:56N 51°20' E 004°16'0 0.0
2017-Jun-17 01:30N 51°20' E 004°16'0 0.0
2017-Jun-17 01:00N 51°20' E 004°16'0 0.0
2017-Jun-17 00:30N 51°20' E 004°16'0 0.0
2017-Jun-16 23:59N 51°20' E 004°16'0 0.0
2017-Jun-16 23:29N 51°20' E 004°16'0 0.0
2017-Jun-16 22:59N 51°20' E 004°16'0 0.0
2017-Jun-16 22:31N 51°20' E 004°16'0 0.0
2017-Jun-16 22:01N 51°20' E 004°16'0 0.0
2017-Jun-16 21:30N 51°20' E 004°17'0 0.0
2017-Jun-16 21:00N 51°20' E 004°16'0 0.0
2017-Jun-16 20:31N 51°20' E 004°16'0 0.0
2017-Jun-16 20:01N 51°20' E 004°16'0 0.0
2017-Jun-16 19:31N 51°20' E 004°16'0 0.0
2017-Jun-16 19:00N 51°20' E 004°16'0 0.0
2017-Jun-16 18:31N 51°20' E 004°16'0 0.0
2017-Jun-16 18:00N 51°20' E 004°16'0 0.0
2017-Jun-16 17:28N 51°20' E 004°16'0 0.0
2017-Jun-16 16:58N 51°20' E 004°17'0 0.0
2017-Jun-16 16:25N 51°20' E 004°16'0 0.0
2017-Jun-16 15:55N 51°20' E 004°16'0 0.0
2017-Jun-16 15:29N 51°20' E 004°17'0 0.0
2017-Jun-16 15:00N 51°20' E 004°17'0 0.0
2017-Jun-16 14:28N 51°20' E 004°16'0 0.0
2017-Jun-16 13:26N 51°20' E 004°17'0 0.0
2017-Jun-16 12:56N 51°20' E 004°17'0 0.0
2017-Jun-16 12:30N 51°20' E 004°16'0 0.0
2017-Jun-16 12:00N 51°20' E 004°17'0 0.0
2017-Jun-16 11:29N 51°20' E 004°17'0 0.0
2017-Jun-16 11:00N 51°20' E 004°16'0 0.0
2017-Jun-16 10:31N 51°20' E 004°17'0 0.0
2017-Jun-16 09:57N 51°20' E 004°17'0 0.0
2017-Jun-16 09:30N 51°20' E 004°17'0 0.0
2017-Jun-16 09:01N 51°20' E 004°17'0 0.0
2017-Jun-16 08:28N 51°20' E 004°17'0 0.0
2017-Jun-16 08:00N 51°20' E 004°16'0 0.0
2017-Jun-16 07:31N 51°20' E 004°17'0 0.0
2017-Jun-16 07:00N 51°20' E 004°16'0 0.0
2017-Jun-16 06:26N 51°20' E 004°17'0 0.0
2017-Jun-16 06:00N 51°20' E 004°17'0 0.0
2017-Jun-16 05:30N 51°20' E 004°16'0 0.0
2017-Jun-16 05:00N 51°20' E 004°16'0 0.0
2017-Jun-16 04:30N 51°20' E 004°16'0 0.0
2017-Jun-16 04:00N 51°20' E 004°16'0 0.5
2017-Jun-16 03:30N 51°20' E 004°16'3 5.0
2017-Jun-16 03:00N 51°22' E 004°13'5 9.6
2017-Jun-16 02:30N 51°22' E 004°05'611.3
2017-Jun-16 02:00N 51°26' E 003°58'714.4
2017-Jun-16 01:30N 51°21' E 003°50'611.7
2017-Jun-16 01:00N 51°24' E 003°43'4 9.0
2017-Jun-16 00:30N 51°26' E 003°36'3 6.2
2017-Jun-16 00:00N 51°25' E 003°31'510.2
2017-Jun-15 23:30N 51°24' E 003°23'510.1
2017-Jun-15 23:00N 51°25' E 003°15'4 7.3
2017-Jun-15 22:30N 51°24' E 003°09'5 9.1
2017-Jun-15 22:00N 51°24' E 003°02'510.0
2017-Jun-15 21:30N 51°22' E 002°54'510.7
2017-Jun-15 21:00N 51°22' E 002°46'510.5
2017-Jun-15 20:30N 51°22' E 002°38'4 7.8
2017-Jun-15 20:00N 51°22' E 002°31'3 5.8
2017-Jun-15 19:30N 51°21' E 002°27'1 2.0
2017-Jun-15 19:00N 51°20' E 002°26'1 2.3
2017-Jun-15 18:30N 51°19' E 002°25'1 2.6
2017-Jun-15 18:00N 51°19' E 002°23'1 2.8
2017-Jun-15 17:30N 51°18' E 002°21'2 3.4
2017-Jun-15 17:00N 51°18' E 002°18'2 3.5
2017-Jun-15 16:30N 51°16' E 002°17'2 3.6
2017-Jun-15 16:00N 51°15' E 002°15'3 5.4
2017-Jun-15 15:30N 51°14' E 002°11'612.6
2017-Jun-15 15:00N 51°11' E 002°01'1312.6
2017-Jun-15 14:00N 51°06' E 001°44'611.9
2017-Jun-15 13:30N 51°01' E 001°37'611.2
2017-Jun-15 13:00N 50°57' E 001°31'510.2
2017-Jun-15 12:30N 50°53' E 001°27'5 9.8
2017-Jun-15 12:00N 50°48' E 001°25'5 9.7
2017-Jun-15 11:30N 50°43' E 001°23'5 9.2
2017-Jun-15 10:59N 50°39' E 001°20'5 9.7
2017-Jun-15 10:30N 50°36' E 001°14'5 9.2
2017-Jun-15 10:00N 50°33' E 001°08'5 9.2
2017-Jun-15 09:30N 50°31' E 001°02'9 9.1
2017-Jun-15 08:30N 50°27' E 000°49'5 9.2
2017-Jun-15 07:57N 50°26' E 000°41'4 9.2
2017-Jun-15 07:30N 50°25' E 000°35'5 9.1
2017-Jun-15 07:00N 50°23' E 000°28'5 9.1
2017-Jun-15 06:30N 50°22' E 000°21'4 8.9
2017-Jun-15 06:00N 50°21' E 000°15'4 8.9
2017-Jun-15 05:30N 50°21' E 000°08'5 9.2
2017-Jun-15 05:00N 50°21' E 000°00'5 9.1
2017-Jun-15 04:30N 50°21' W 000°07'5 9.2
2017-Jun-15 04:00N 50°21' W 000°14'5 9.3
2017-Jun-15 03:30N 50°22' W 000°21'5 9.5
2017-Jun-15 03:00N 50°22' W 000°29'5 9.7
2017-Jun-15 02:29N 50°25' W 000°35'510.5
2017-Jun-15 02:00N 50°28' W 000°41'510.5
2017-Jun-15 01:30N 50°32' W 000°47'510.2
2017-Jun-15 01:00N 50°36' W 000°52'4 8.4
2017-Jun-15 00:30N 50°40' W 000°56'3 6.6
2017-Jun-15 00:00N 50°42' W 000°59'815.3
2017-Jun-14 23:30N 50°46' W 001°09'612.0
2017-Jun-14 23:00N 50°48' W 001°18'5 9.1
2017-Jun-14 22:30N 50°52' W 001°22'4 7.4
2017-Jun-14 22:00N 50°54' W 001°26'1 0.1
2017-Jun-14 11:19N 50°54' W 001°28'1 4.2
2017-Jun-14 10:59N 50°54' W 001°25'4 7.8
2017-Jun-14 10:30N 50°51' W 001°21'4 8.1
2017-Jun-14 10:00N 50°48' W 001°18'2 4.2
2017-Jun-14 09:30N 50°46' W 001°16'5 9.2
2017-Jun-14 09:00N 50°46' W 001°09'612.6
2017-Jun-14 08:30N 50°43' W 000°60'613.0
2017-Jun-14 08:00N 50°37' W 000°57'5 9.7
2017-Jun-14 07:30N 50°33' W 001°02'5 9.6
2017-Jun-14 06:59N 50°30' W 001°09'4 9.4
2017-Jun-14 06:30N 50°28' W 001°14'0 0.4
2017-Jun-14 06:01N 50°28' W 001°15'3 5.8
2017-Jun-14 05:30N 50°26' W 001°19'0 0.6
2017-Jun-14 05:00N 50°26' W 001°18'2 3.0
2017-Jun-14 04:30N 50°26' W 001°16'1 2.1
2017-Jun-14 04:01N 50°27' W 001°14'2 3.8
2017-Jun-14 03:31N 50°28' W 001°17'1 1.6
2017-Jun-14 03:00N 50°28' W 001°18'1 2.4
2017-Jun-14 02:30N 50°28' W 001°16'1 1.7
2017-Jun-14 02:01N 50°28' W 001°14'3 5.8
2017-Jun-14 01:30N 50°25' W 001°15'510.1
2017-Jun-14 01:00N 50°22' W 001°21'510.7
2017-Jun-14 00:30N 50°19' W 001°27'511.0
2017-Jun-14 00:00N 50°14' W 001°33'611.4
2017-Jun-13 23:30N 50°10' W 001°39'612.2
2017-Jun-13 23:01N 50°07' W 001°47'612.6
2017-Jun-13 22:31N 50°03' W 001°55'612.9
2017-Jun-13 22:00N 50°00' W 002°04'612.9
2017-Jun-13 21:30N 49°57' W 002°12'612.4
2017-Jun-13 21:00N 49°55' W 002°21'611.8
2017-Jun-13 20:30N 49°53' W 002°30'611.4
2017-Jun-13 19:59N 49°51' W 002°39'511.1
2017-Jun-13 19:30N 49°50' W 002°47'511.0
2017-Jun-13 19:01N 49°48' W 002°55'510.6
2017-Jun-13 18:31N 49°47' W 003°03'510.4
2017-Jun-13 18:00N 49°46' W 003°11'611.3
2017-Jun-13 17:30N 49°45' W 003°20'815.4
2017-Jun-13 16:58N 49°44' W 003°32'715.3
2017-Jun-13 16:30N 49°44' W 003°43'815.3
2017-Jun-13 16:00N 49°43' W 003°55'815.3
2017-Jun-13 15:30N 49°42' W 004°07'815.3
2017-Jun-13 14:59N 49°41' W 004°19'1015.3
2017-Jun-13 14:20N 49°40' W 004°34'1315.2
2017-Jun-13 13:30N 49°38' W 004°53'815.0
2017-Jun-13 12:59N 49°38' W 005°06'1014.9
2017-Jun-13 12:18N 49°38' W 005°21'414.9
2017-Jun-13 12:00N 49°38' W 005°28'714.9
2017-Jun-13 11:30N 49°38' W 005°40'715.0
2017-Jun-13 11:00N 49°38' W 005°51'815.0
2017-Jun-13 10:30N 49°38' W 006°03'814.8
2017-Jun-13 09:59N 49°38' W 006°15'1114.7
2017-Jun-13 09:13N 49°38' W 006°32'314.7
2017-Jun-13 08:59N 49°38' W 006°37'714.8
2017-Jun-13 08:30N 49°38' W 006°48'  

Dump ship's entire track history